createdAt,value
2023-04-27T00:00:59.870Z,67.2981
2023-04-27T00:02:01.542Z,68.0730
2023-04-27T00:03:03.461Z,68.1796
2023-04-27T00:04:05.061Z,67.8494
2023-04-27T00:05:06.480Z,67.3659
2023-04-27T00:06:08.663Z,67.4528
2023-04-27T00:07:09.706Z,67.4614
2023-04-27T00:08:11.357Z,67.2049
2023-04-27T00:09:13.276Z,67.3313
2023-04-27T00:10:14.606Z,67.1776
2023-04-27T00:11:16.396Z,67.3499
2023-04-27T00:12:18.028Z,67.2598
2023-04-27T00:13:19.654Z,67.4117
2023-04-27T00:14:21.234Z,67.8026
2023-04-27T00:15:22.872Z,67.9418
2023-04-27T00:16:25.639Z,67.8399
2023-04-27T00:17:26.302Z,67.0710
2023-04-27T00:18:27.903Z,66.5004
2023-04-27T00:19:29.462Z,66.3831
2023-04-27T00:20:31.245Z,66.0503
2023-04-27T00:21:32.739Z,65.8625
2023-04-27T00:22:34.522Z,66.5775
2023-04-27T00:23:36.111Z,67.0158
2023-04-27T00:24:37.747Z,66.9041
2023-04-27T00:25:39.426Z,66.9587
2023-04-27T00:26:40.993Z,66.8391
2023-04-27T00:27:42.601Z,67.4032
2023-04-27T00:28:44.423Z,67.1122
2023-04-27T00:29:45.996Z,66.7748
2023-04-27T00:30:47.613Z,66.8993
2023-04-27T00:31:49.212Z,66.7862
2023-04-27T00:32:50.965Z,66.0735
2023-04-27T00:33:52.495Z,66.0316
2023-04-27T00:34:54.222Z,66.0872
2023-04-27T00:35:55.816Z,66.6428
2023-04-27T00:36:57.440Z,66.3264
2023-04-27T00:37:59.176Z,66.1692
2023-04-27T00:39:00.723Z,66.1877
2023-04-27T00:40:02.479Z,65.9244
2023-04-27T00:41:04.129Z,66.9825
2023-04-27T00:42:05.702Z,66.8478
2023-04-27T00:43:07.415Z,66.9153
2023-04-27T00:44:09.077Z,67.0200
2023-04-27T00:45:10.768Z,66.2979
2023-04-27T00:46:12.405Z,66.0509
2023-04-27T00:47:14.022Z,65.7797
2023-04-27T00:48:15.677Z,66.4253
2023-04-27T00:49:17.338Z,66.7277
2023-04-27T00:50:19.091Z,66.5523
2023-04-27T00:51:20.616Z,66.3876
2023-04-27T00:52:22.252Z,66.1450
2023-04-27T00:53:23.914Z,66.1545
2023-04-27T00:54:25.536Z,67.0599
2023-04-27T00:55:27.245Z,66.5712
2023-04-27T00:56:28.824Z,67.4156
2023-04-27T00:57:30.668Z,67.6966
2023-04-27T00:58:32.132Z,66.9296
2023-04-27T00:59:33.781Z,66.8014
2023-04-27T01:00:35.673Z,65.9454
2023-04-27T01:01:37.151Z,66.1104
2023-04-27T01:02:38.909Z,65.8559
2023-04-27T01:03:40.602Z,65.9766
2023-04-27T01:04:42.101Z,65.5854
2023-04-27T01:05:43.693Z,65.8301
2023-04-27T01:06:45.333Z,66.4321
2023-04-27T01:07:47.057Z,66.7705
2023-04-27T01:08:48.592Z,66.4482
2023-04-27T01:09:50.297Z,66.2382
2023-04-27T01:10:51.896Z,67.0805
2023-04-27T01:11:53.815Z,66.7363
2023-04-27T01:12:55.366Z,66.1879
2023-04-27T01:13:56.956Z,66.3759
2023-04-27T01:14:58.531Z,65.8663
2023-04-27T01:16:00.192Z,65.5864
2023-04-27T01:17:01.986Z,65.0127
2023-04-27T01:18:03.556Z,65.3066
2023-04-27T01:19:05.098Z,65.7990
2023-04-27T01:20:06.855Z,66.3355
2023-04-27T01:21:09.343Z,66.2734
2023-04-27T01:22:10.129Z,66.1736
2023-04-27T01:23:11.753Z,65.7588
2023-04-27T01:24:13.437Z,66.4686
2023-04-27T01:25:15.021Z,66.5911
2023-04-27T01:26:16.630Z,67.0255
2023-04-27T01:27:18.361Z,67.0413
2023-04-27T01:28:19.964Z,66.9974
2023-04-27T01:29:22.605Z,66.2573
2023-04-27T01:30:23.236Z,66.1769
2023-04-27T01:31:25.230Z,65.4767
2023-04-27T01:32:26.597Z,65.3331
2023-04-27T01:33:28.149Z,65.7789
2023-04-27T01:34:29.872Z,66.0566
2023-04-27T01:35:31.430Z,65.9562
2023-04-27T01:36:33.170Z,66.0390
2023-04-27T01:37:34.724Z,66.5208
2023-04-27T01:38:36.407Z,66.8156
2023-04-27T01:39:38.097Z,66.8796
2023-04-27T01:40:39.726Z,67.2074
2023-04-27T01:41:41.455Z,67.4677
2023-04-27T01:42:42.982Z,67.2425
2023-04-27T01:43:44.776Z,66.5320
2023-04-27T01:44:46.660Z,66.6554
2023-04-27T01:45:47.962Z,66.3657
2023-04-27T01:46:49.724Z,65.8087
2023-04-27T01:47:51.241Z,65.8101
2023-04-27T01:48:52.897Z,66.3383
2023-04-27T01:49:54.613Z,66.4554
2023-04-27T01:50:57.175Z,66.5789
2023-04-27T01:51:57.926Z,66.4559
2023-04-27T01:52:59.528Z,66.8799
2023-04-27T01:54:01.119Z,67.1178
2023-04-27T01:55:02.778Z,66.8050
2023-04-27T01:56:04.434Z,66.8055
2023-04-27T01:57:06.076Z,66.9727
2023-04-27T01:58:07.751Z,66.1266
2023-04-27T01:59:10.643Z,65.9648
2023-04-27T02:00:10.999Z,65.8597
2023-04-27T02:01:12.704Z,65.6306
2023-04-27T02:02:14.339Z,65.9620
2023-04-27T02:03:16.065Z,66.4939
2023-04-27T02:04:17.916Z,65.4838
2023-04-27T02:05:19.264Z,65.8710
2023-04-27T02:06:20.895Z,65.8087
2023-04-27T02:07:23.481Z,65.9272
2023-04-27T02:08:24.173Z,66.3248
2023-04-27T02:09:25.936Z,67.1921
2023-04-27T02:10:27.568Z,66.7558
2023-04-27T02:11:29.219Z,66.4659
2023-04-27T02:12:30.753Z,66.6921
2023-04-27T02:13:32.344Z,66.1836
2023-04-27T02:14:34.133Z,65.3233
2023-04-27T02:15:35.691Z,65.4108
2023-04-27T02:16:37.478Z,65.5758
2023-04-27T02:17:39.904Z,66.2184
2023-04-27T02:18:40.639Z,66.1290
2023-04-27T02:19:42.298Z,66.5277
2023-04-27T02:20:44.340Z,66.5731
2023-04-27T02:21:46.593Z,66.3085
2023-04-27T02:22:48.101Z,66.1479
2023-04-27T02:23:48.777Z,66.8483
2023-04-27T02:24:50.531Z,66.2714
2023-04-27T02:25:52.123Z,66.2436
2023-04-27T02:26:53.772Z,65.8397
2023-04-27T02:27:55.400Z,66.1222
2023-04-27T02:28:57.049Z,65.1754
2023-04-27T02:29:58.723Z,65.2422
2023-04-27T02:31:00.354Z,66.2410
2023-04-27T02:32:02.138Z,66.5884
2023-04-27T02:33:03.641Z,66.4496
2023-04-27T02:34:05.297Z,66.1436
2023-04-27T02:35:06.953Z,66.5674
2023-04-27T02:36:08.552Z,67.0749
2023-04-27T02:37:10.189Z,66.7360
2023-04-27T02:38:11.851Z,66.5006
2023-04-27T02:39:13.712Z,66.3258
2023-04-27T02:40:15.134Z,65.6396
2023-04-27T02:41:16.850Z,65.5126
2023-04-27T02:42:18.401Z,65.2469
2023-04-27T02:43:20.097Z,64.7684
2023-04-27T02:44:21.711Z,64.8296
2023-04-27T02:45:23.431Z,65.6817
2023-04-27T02:46:25.088Z,65.4072
2023-04-27T02:47:26.678Z,65.7328
2023-04-27T02:48:28.319Z,65.8843
2023-04-27T02:49:29.932Z,65.6230
2023-04-27T02:50:31.612Z,66.0416
2023-04-27T02:51:33.242Z,66.5173
2023-04-27T02:52:34.905Z,66.3702
2023-04-27T02:53:36.474Z,66.3278
2023-04-27T02:54:38.156Z,66.8085
2023-04-27T02:55:39.884Z,65.8177
2023-04-27T02:56:41.529Z,65.6299
2023-04-27T02:57:43.043Z,65.0985
2023-04-27T02:58:44.758Z,64.9408
2023-04-27T02:59:46.373Z,65.6707
2023-04-27T03:00:48.940Z,66.0227
2023-04-27T03:01:49.718Z,65.8941
2023-04-27T03:02:51.519Z,65.8779
2023-04-27T03:03:53.179Z,66.3099
2023-04-27T03:04:54.598Z,66.0946
2023-04-27T03:05:56.315Z,66.3370
2023-04-27T03:06:57.917Z,66.1356
2023-04-27T03:07:59.613Z,65.9857
2023-04-27T03:09:01.194Z,66.0293
2023-04-27T03:10:02.828Z,65.7017
2023-04-27T03:11:04.542Z,65.0084
2023-04-27T03:12:06.192Z,64.7987
2023-04-27T03:13:07.772Z,65.5032
2023-04-27T03:14:09.368Z,65.9879
2023-04-27T03:15:11.098Z,65.9191
2023-04-27T03:16:13.601Z,66.6197
2023-04-27T03:17:14.629Z,66.5670
2023-04-27T03:18:16.006Z,66.4233
2023-04-27T03:19:17.599Z,66.6816
2023-04-27T03:20:19.326Z,67.1790
2023-04-27T03:21:20.945Z,66.7039
2023-04-27T03:22:22.638Z,66.1693
2023-04-27T03:23:24.236Z,66.2481
2023-04-27T03:24:25.883Z,66.3614
2023-04-27T03:25:27.527Z,65.3195
2023-04-27T03:26:29.301Z,64.9080
2023-04-27T03:27:30.837Z,64.5136
2023-04-27T03:28:32.552Z,64.7676
2023-04-27T03:29:34.038Z,65.7764
2023-04-27T03:30:35.784Z,65.8285
2023-04-27T03:31:37.461Z,66.0505
2023-04-27T03:32:39.091Z,66.1726
2023-04-27T03:33:40.686Z,65.8360
2023-04-27T03:34:42.300Z,66.3950
2023-04-27T03:35:44.010Z,66.3134
2023-04-27T03:36:45.678Z,65.2396
2023-04-27T03:37:47.333Z,65.5819
2023-04-27T03:38:48.877Z,65.1271
2023-04-27T03:39:50.569Z,65.0182
2023-04-27T03:40:52.288Z,64.9901
2023-04-27T03:41:53.927Z,64.8022
2023-04-27T03:42:56.645Z,65.5111
2023-04-27T03:43:57.257Z,65.4248
2023-04-27T03:44:58.867Z,65.4396
2023-04-27T03:46:00.569Z,65.4890
2023-04-27T03:47:02.096Z,65.7213
2023-04-27T03:48:03.881Z,66.7145
2023-04-27T03:49:05.435Z,66.4589
2023-04-27T03:50:07.680Z,65.7022
2023-04-27T03:51:08.715Z,66.1989
2023-04-27T03:52:10.385Z,65.6840
2023-04-27T03:53:12.057Z,65.2261
2023-04-27T03:54:13.720Z,64.8324
2023-04-27T03:55:15.308Z,64.3010
2023-04-27T03:56:16.973Z,64.4062
2023-04-27T03:57:18.560Z,63.4904
2023-04-27T03:58:20.279Z,62.8499
2023-04-27T03:59:21.875Z,62.2586
2023-04-27T04:00:23.584Z,61.8283
2023-04-27T04:01:25.226Z,62.0332
2023-04-27T04:02:26.975Z,61.8400
2023-04-27T04:03:28.728Z,60.5630
2023-04-27T04:04:30.337Z,59.9328
2023-04-27T04:05:31.814Z,59.5484
2023-04-27T04:06:33.368Z,59.7991
2023-04-27T04:07:35.044Z,59.6398
2023-04-27T04:08:36.632Z,59.0578
2023-04-27T04:09:38.708Z,59.1248
2023-04-27T04:10:40.133Z,58.9193
2023-04-27T04:11:41.618Z,58.6155
2023-04-27T04:12:43.229Z,58.1273
2023-04-27T04:13:44.880Z,57.6211
2023-04-27T04:14:46.578Z,57.1098
2023-04-27T04:15:48.269Z,56.5430
2023-04-27T04:16:49.816Z,56.2890
2023-04-27T04:17:51.476Z,56.2861
2023-04-27T04:18:53.086Z,56.6097
2023-04-27T04:19:54.757Z,56.8778
2023-04-27T04:20:56.459Z,56.9701
2023-04-27T04:21:58.007Z,56.9680
2023-04-27T04:22:59.704Z,56.9072
2023-04-27T04:24:01.331Z,56.4906
2023-04-27T04:25:03.036Z,55.7985
2023-04-27T04:26:04.613Z,55.4737
2023-04-27T04:27:06.267Z,55.2726
2023-04-27T04:28:07.865Z,54.7925
2023-04-27T04:29:10.992Z,54.8106
2023-04-27T04:30:11.140Z,54.8306
2023-04-27T04:31:12.930Z,54.6666
2023-04-27T04:32:14.499Z,54.7053
2023-04-27T04:33:16.061Z,54.9141
2023-04-27T04:34:17.816Z,54.8062
2023-04-27T04:35:19.371Z,54.6540
2023-04-27T04:36:21.112Z,54.4451
2023-04-27T04:37:23.172Z,54.2637
2023-04-27T04:38:24.374Z,54.2513
2023-04-27T04:39:25.938Z,54.5011
2023-04-27T04:40:27.587Z,54.5857
2023-04-27T04:41:29.279Z,54.6101
2023-04-27T04:42:30.957Z,54.8175
2023-04-27T04:43:32.526Z,54.7612
2023-04-27T04:44:34.199Z,54.9210
2023-04-27T04:45:35.814Z,55.0526
2023-04-27T04:46:37.734Z,55.3175
2023-04-27T04:47:39.793Z,55.4062
2023-04-27T04:48:40.752Z,55.7946
2023-04-27T04:49:42.420Z,55.6776
2023-04-27T04:50:44.092Z,55.7189
2023-04-27T04:51:45.801Z,55.4816
2023-04-27T04:52:47.400Z,55.9400
2023-04-27T04:53:49.033Z,56.1363
2023-04-27T04:54:50.698Z,56.2110
2023-04-27T04:55:52.265Z,56.2757
2023-04-27T04:56:53.994Z,56.0327
2023-04-27T04:57:55.643Z,56.6282
2023-04-27T04:58:57.249Z,57.0283
2023-04-27T04:59:59.635Z,57.0259
2023-04-27T05:01:00.499Z,56.5204
2023-04-27T05:02:02.360Z,56.3783
2023-04-27T05:03:04.013Z,56.2946
2023-04-27T05:04:05.675Z,56.2702
2023-04-27T05:05:07.130Z,56.5565
2023-04-27T05:06:08.781Z,56.4817
2023-04-27T05:07:12.016Z,56.6052
2023-04-27T05:08:15.125Z,56.6388
2023-04-27T05:09:13.906Z,56.6177
2023-04-27T05:10:15.254Z,56.7232
2023-04-27T05:11:16.958Z,56.8268
2023-04-27T05:12:18.520Z,56.8811
2023-04-27T05:13:20.248Z,56.7235
2023-04-27T05:14:21.849Z,57.0380
2023-04-27T05:15:23.483Z,57.0421
2023-04-27T05:16:25.170Z,57.1429
2023-04-27T05:17:26.824Z,57.2754
2023-04-27T05:18:28.450Z,57.6481
2023-04-27T05:19:30.157Z,57.3606
2023-04-27T05:20:32.645Z,57.4753
2023-04-27T05:21:33.351Z,57.3440
2023-04-27T05:22:35.040Z,57.3304
2023-04-27T05:23:37.109Z,57.6362
2023-04-27T05:24:38.651Z,57.9662
2023-04-27T05:25:39.967Z,57.5112
2023-04-27T05:26:41.601Z,57.8591
2023-04-27T05:27:43.263Z,57.4068
2023-04-27T05:28:44.914Z,57.1727
2023-04-27T05:29:46.602Z,57.0752
2023-04-27T05:30:48.222Z,57.1067
2023-04-27T05:31:49.883Z,57.1892
2023-04-27T05:32:51.492Z,57.5519
2023-04-27T05:33:53.136Z,57.2869
2023-04-27T05:34:54.803Z,57.3623
2023-04-27T05:35:56.483Z,57.2920
2023-04-27T05:36:58.125Z,57.5868
2023-04-27T05:38:00.687Z,57.4050
2023-04-27T05:39:01.408Z,57.4976
2023-04-27T05:40:03.107Z,57.4244
2023-04-27T05:41:05.081Z,57.6001
2023-04-27T05:42:06.363Z,57.4657
2023-04-27T05:43:07.930Z,57.3318
2023-04-27T05:44:09.609Z,57.4015
2023-04-27T05:45:11.208Z,57.6276
2023-04-27T05:46:13.033Z,57.5475
2023-04-27T05:47:16.169Z,57.4823
2023-04-27T05:48:16.208Z,57.2488
2023-04-27T05:49:17.811Z,57.4076
2023-04-27T05:50:19.506Z,57.2284
2023-04-27T05:51:21.107Z,57.4039
2023-04-27T05:52:22.760Z,57.6555
2023-04-27T05:53:24.417Z,57.6030
2023-04-27T05:54:26.018Z,57.3551
2023-04-27T05:55:27.737Z,57.5117
2023-04-27T05:56:30.221Z,57.5139
2023-04-27T05:57:31.109Z,57.5212
2023-04-27T05:58:32.633Z,57.6573
2023-04-27T05:59:34.293Z,57.6358
2023-04-27T06:00:36.131Z,57.5974
2023-04-27T06:01:37.725Z,57.4837
2023-04-27T06:02:39.631Z,57.8230
2023-04-27T06:03:41.937Z,57.7750
2023-04-27T06:04:42.627Z,57.6851
2023-04-27T06:05:44.290Z,57.7138
2023-04-27T06:06:46.329Z,57.7753
2023-04-27T06:07:47.623Z,57.8588
2023-04-27T06:08:49.194Z,58.1053
2023-04-27T06:09:50.974Z,58.2031
2023-04-27T06:10:52.484Z,58.1185
2023-04-27T06:11:54.254Z,58.2149
2023-04-27T06:12:55.862Z,58.3244
2023-04-27T06:13:57.521Z,58.3074
2023-04-27T06:14:59.161Z,58.2575
2023-04-27T06:16:00.833Z,58.4521
2023-04-27T06:17:03.443Z,58.5427
2023-04-27T06:18:05.114Z,58.5121
2023-04-27T06:19:05.732Z,58.4900
2023-04-27T06:20:08.380Z,58.5606
2023-04-27T06:21:09.058Z,58.5401
2023-04-27T06:22:10.710Z,58.4328
2023-04-27T06:23:12.300Z,58.4015
2023-04-27T06:24:14.935Z,58.6204
2023-04-27T06:25:15.622Z,58.6149
2023-04-27T06:26:18.208Z,58.6172
2023-04-27T06:27:18.835Z,58.4611
2023-04-27T06:28:20.625Z,58.9476
2023-04-27T06:29:22.176Z,58.7710
2023-04-27T06:30:23.896Z,58.8607
2023-04-27T06:31:25.547Z,58.9697
2023-04-27T06:32:27.170Z,58.9151
2023-04-27T06:33:28.795Z,58.4869
2023-04-27T06:34:30.457Z,58.5134
2023-04-27T06:35:32.314Z,58.8270
2023-04-27T06:36:33.688Z,58.9456
2023-04-27T06:37:35.310Z,58.8270
2023-04-27T06:38:37.092Z,58.9174
2023-04-27T06:39:38.667Z,58.4766
2023-04-27T06:40:40.360Z,58.3515
2023-04-27T06:41:41.916Z,58.5705
2023-04-27T06:42:43.606Z,58.4556
2023-04-27T06:43:45.816Z,58.2326
2023-04-27T06:44:47.396Z,58.5419
2023-04-27T06:45:48.610Z,57.9170
2023-04-27T06:46:50.157Z,49.9927
2023-04-27T06:47:52.376Z,52.2416
2023-04-27T06:48:53.418Z,53.1762
2023-04-27T06:49:55.168Z,52.7840
2023-04-27T06:50:57.356Z,52.9927
2023-04-27T06:51:58.402Z,53.5221
2023-04-27T06:53:00.141Z,54.0689
2023-04-27T06:54:01.712Z,53.9855
2023-04-27T06:55:03.395Z,54.8801
2023-04-27T06:56:05.000Z,55.3834
2023-04-27T06:57:06.708Z,55.6087
2023-04-27T06:58:09.243Z,55.8609
2023-04-27T06:59:10.038Z,55.7994
2023-04-27T07:00:12.476Z,56.3798
2023-04-27T07:01:13.410Z,56.4056
2023-04-27T07:02:14.938Z,57.0965
2023-04-27T07:03:16.770Z,57.3908
2023-04-27T07:04:18.260Z,57.5956
2023-04-27T07:05:20.864Z,57.7446
2023-04-27T07:06:21.411Z,57.7752
2023-04-27T07:07:23.156Z,58.3080
2023-04-27T07:08:24.959Z,58.9230
2023-04-27T07:09:27.716Z,59.2534
2023-04-27T07:10:28.053Z,59.5940
2023-04-27T07:11:29.760Z,59.9490
2023-04-27T07:12:31.471Z,60.1242
2023-04-27T07:13:33.025Z,60.1553
2023-04-27T07:14:34.692Z,60.4013
2023-04-27T07:15:36.287Z,60.6934
2023-04-27T07:16:38.132Z,60.8245
2023-04-27T07:17:39.655Z,60.4841
2023-04-27T07:18:43.328Z,60.7387
2023-04-27T07:19:42.912Z,61.2828
2023-04-27T07:20:44.495Z,60.9388
2023-04-27T07:21:46.290Z,61.5461
2023-04-27T07:22:47.754Z,61.5190
2023-04-27T07:23:49.944Z,61.6892
2023-04-27T07:24:51.129Z,61.3418
2023-04-27T07:25:52.889Z,61.5023
2023-04-27T07:26:54.456Z,61.1214
2023-04-27T07:27:56.094Z,60.6235
2023-04-27T07:28:58.387Z,60.1185
2023-04-27T07:29:59.409Z,60.2694
2023-04-27T07:31:00.997Z,60.0673
2023-04-27T07:32:02.768Z,60.0642
2023-04-27T07:33:04.282Z,59.9308
2023-04-27T07:34:05.948Z,60.1668
2023-04-27T07:35:07.610Z,59.9550
2023-04-27T07:36:10.281Z,59.8766
2023-04-27T07:37:10.840Z,59.7395
2023-04-27T07:38:12.549Z,59.8094
2023-04-27T07:39:14.310Z,59.9871
2023-04-27T07:40:15.895Z,59.6494
2023-04-27T07:41:17.484Z,59.3714
2023-04-27T07:42:19.189Z,59.1574
2023-04-27T07:43:20.711Z,58.9037
2023-04-27T07:44:22.873Z,58.7187
2023-04-27T07:45:24.063Z,58.8409
2023-04-27T07:46:25.936Z,58.7877
2023-04-27T07:47:28.507Z,58.2434
2023-04-27T07:48:29.047Z,54.4910
2023-04-27T07:49:30.606Z,49.9272
2023-04-27T07:50:32.308Z,52.7876
2023-04-27T07:51:33.982Z,53.1165
2023-04-27T07:52:35.679Z,52.3912
2023-04-27T07:53:37.220Z,51.4424
2023-04-27T07:54:38.861Z,51.0158
2023-04-27T07:55:40.540Z,48.8297
2023-04-27T07:56:42.274Z,49.4404
2023-04-27T07:57:43.879Z,49.7899
2023-04-27T07:58:45.507Z,50.3251
2023-04-27T07:59:47.088Z,50.6848
2023-04-27T08:00:48.793Z,51.1524
2023-04-27T08:01:50.454Z,51.3763
2023-04-27T08:02:52.351Z,51.2917
2023-04-27T08:03:53.992Z,51.8301
2023-04-27T08:04:55.684Z,49.5485
2023-04-27T08:05:57.465Z,49.1555
2023-04-27T08:06:59.004Z,50.8206
2023-04-27T08:08:00.610Z,47.3337
2023-04-27T08:09:01.998Z,47.3884
2023-04-27T08:10:03.592Z,48.0596
2023-04-27T08:11:05.278Z,48.5134
2023-04-27T08:12:06.928Z,48.4047
2023-04-27T08:13:08.624Z,43.0994
2023-04-27T08:14:10.205Z,43.8872
2023-04-27T08:15:11.827Z,45.2174
2023-04-27T08:16:13.536Z,41.6297
2023-04-27T08:17:15.150Z,43.7096
2023-04-27T08:18:16.887Z,44.8478
2023-04-27T08:19:18.492Z,44.9204
2023-04-27T08:20:20.078Z,45.7377
2023-04-27T08:21:21.767Z,46.0520
2023-04-27T08:22:23.518Z,46.7468
2023-04-27T08:23:25.105Z,47.2218
2023-04-27T08:24:26.718Z,48.0733
2023-04-27T08:25:28.378Z,48.4199
2023-04-27T08:26:29.975Z,49.1340
2023-04-27T08:27:31.725Z,46.2081
2023-04-27T08:28:33.322Z,46.7022
2023-04-27T08:29:35.099Z,43.8225
2023-04-27T08:30:37.224Z,43.9472
2023-04-27T08:31:38.395Z,46.8123
2023-04-27T08:32:39.939Z,47.3683
2023-04-27T08:33:41.822Z,47.4225
2023-04-27T08:34:43.191Z,47.2117
2023-04-27T08:35:44.855Z,47.6174
2023-04-27T08:36:46.536Z,48.7973
2023-04-27T08:37:48.221Z,49.0586
2023-04-27T08:38:49.816Z,49.3294
2023-04-27T08:39:51.500Z,49.3086
2023-04-27T08:40:53.096Z,49.7870
2023-04-27T08:41:54.773Z,50.6146
2023-04-27T08:42:56.464Z,49.9377
2023-04-27T08:43:59.116Z,51.3171
2023-04-27T08:44:59.689Z,50.0488
2023-04-27T08:46:01.420Z,46.9331
2023-04-27T08:47:02.978Z,47.5730
2023-04-27T08:48:04.785Z,47.7329
2023-04-27T08:49:06.483Z,47.2739
2023-04-27T08:50:07.945Z,47.1616
2023-04-27T08:51:09.680Z,46.5476
2023-04-27T08:52:11.320Z,45.5120
2023-04-27T08:53:12.968Z,46.3183
2023-04-27T08:54:14.571Z,46.7367
2023-04-27T08:55:16.917Z,46.8858
2023-04-27T08:56:17.826Z,47.1532
2023-04-27T08:57:19.551Z,46.8679
2023-04-27T08:58:21.184Z,47.8860
2023-04-27T08:59:22.874Z,48.5407
2023-04-27T09:00:24.493Z,48.3365
2023-04-27T09:01:26.184Z,48.5930
2023-04-27T09:02:27.784Z,48.8906
2023-04-27T09:03:29.524Z,49.5226
2023-04-27T09:04:31.097Z,50.0495
2023-04-27T09:05:32.766Z,50.2344
2023-04-27T09:06:34.376Z,50.5647
2023-04-27T09:07:35.997Z,51.1867
2023-04-27T09:08:37.604Z,51.1742
2023-04-27T09:09:39.245Z,44.6941
2023-04-27T09:10:40.972Z,43.6724
2023-04-27T09:11:42.595Z,46.4193
2023-04-27T09:12:44.249Z,50.0173
2023-04-27T09:13:45.842Z,48.6471
2023-04-27T09:14:47.573Z,47.9734
2023-04-27T09:15:49.269Z,47.9739
2023-04-27T09:16:50.897Z,48.1441
2023-04-27T09:17:52.436Z,48.7503
2023-04-27T09:18:54.126Z,48.6343
2023-04-27T09:19:55.805Z,48.7544
2023-04-27T09:20:57.487Z,47.0504
2023-04-27T09:21:59.067Z,43.1935
2023-04-27T09:23:00.691Z,43.8064
2023-04-27T09:24:02.378Z,44.5971
2023-04-27T09:25:04.115Z,43.8215
2023-04-27T09:26:05.726Z,43.9210
2023-04-27T09:27:07.373Z,44.0956
2023-04-27T09:28:09.022Z,43.9979
2023-04-27T09:29:10.664Z,43.3453
2023-04-27T09:30:12.321Z,43.6939
2023-04-27T09:31:13.964Z,42.9517
2023-04-27T09:32:16.791Z,42.7065
2023-04-27T09:33:18.238Z,42.2269
2023-04-27T09:34:18.898Z,42.4550
2023-04-27T09:35:20.568Z,43.1231
2023-04-27T09:36:22.224Z,43.3949
2023-04-27T09:37:23.796Z,43.5277
2023-04-27T09:38:25.493Z,43.9609
2023-04-27T09:39:27.104Z,42.5812
2023-04-27T09:40:29.319Z,43.4178
2023-04-27T09:41:30.610Z,42.2532
2023-04-27T09:42:32.285Z,42.4115
2023-04-27T09:43:33.809Z,42.3235
2023-04-27T09:44:35.371Z,42.0011
2023-04-27T09:45:37.315Z,41.5479
2023-04-27T09:46:38.715Z,42.3151
2023-04-27T09:47:40.493Z,41.7339
2023-04-27T09:48:42.726Z,41.7158
2023-04-27T09:49:43.687Z,41.1741
2023-04-27T09:50:46.254Z,40.8593
2023-04-27T09:51:47.085Z,41.5406
2023-04-27T09:52:48.730Z,41.2004
2023-04-27T09:53:50.300Z,40.8183
2023-04-27T09:54:51.966Z,42.0148
2023-04-27T09:55:53.604Z,42.0653
2023-04-27T09:56:55.286Z,42.6841
2023-04-27T09:57:56.886Z,41.8440
2023-04-27T09:58:59.247Z,41.8172
2023-04-27T10:00:00.227Z,41.7031
2023-04-27T10:01:01.870Z,43.4007
2023-04-27T10:02:17.099Z,40.3205
2023-04-27T10:03:05.282Z,39.4727
2023-04-27T10:04:08.157Z,39.6946
2023-04-27T10:05:08.592Z,43.9365
2023-04-27T10:06:10.221Z,45.2177
2023-04-27T10:07:11.793Z,41.3678
2023-04-27T10:08:13.583Z,41.3788
2023-04-27T10:09:15.423Z,40.9994
2023-04-27T10:10:16.889Z,40.0922
2023-04-27T10:11:18.455Z,39.0841
2023-04-27T10:12:20.109Z,39.1594
2023-04-27T10:13:21.783Z,39.5888
2023-04-27T10:14:23.441Z,39.0395
2023-04-27T10:15:25.134Z,38.7582
2023-04-27T10:16:26.722Z,39.1661
2023-04-27T10:17:28.381Z,39.1024
2023-04-27T10:18:30.102Z,40.1855
2023-04-27T10:19:31.733Z,40.2309
2023-04-27T10:20:33.301Z,39.8380
2023-04-27T10:21:34.977Z,39.7305
2023-04-27T10:22:36.632Z,39.7826
2023-04-27T10:23:38.270Z,39.2419
2023-04-27T10:24:40.381Z,39.1890
2023-04-27T10:25:41.507Z,39.4175
2023-04-27T10:26:43.830Z,38.3761
2023-04-27T10:27:45.798Z,37.5869
2023-04-27T10:28:46.598Z,40.9531
2023-04-27T10:29:48.222Z,39.6759
2023-04-27T10:30:49.917Z,39.0360
2023-04-27T10:31:51.492Z,39.0522
2023-04-27T10:32:53.205Z,39.4868
2023-04-27T10:33:54.811Z,40.3466
2023-04-27T10:34:57.420Z,42.2492
2023-04-27T10:35:58.099Z,40.1504
2023-04-27T10:36:59.696Z,39.4205
2023-04-27T10:38:01.425Z,38.4384
2023-04-27T10:39:03.079Z,39.6253
2023-04-27T10:40:08.339Z,41.8307
2023-04-27T10:41:06.305Z,42.5541
2023-04-27T10:42:07.999Z,43.2722
2023-04-27T10:43:09.607Z,41.7990
2023-04-27T10:44:11.362Z,39.0359
2023-04-27T10:45:12.963Z,41.3366
2023-04-27T10:46:14.678Z,40.6312
2023-04-27T10:47:16.248Z,39.8831
2023-04-27T10:48:17.947Z,39.1147
2023-04-27T10:49:19.620Z,39.3873
2023-04-27T10:50:21.309Z,44.3874
2023-04-27T10:51:22.871Z,40.8560
2023-04-27T10:52:24.493Z,39.9481
2023-04-27T10:53:26.200Z,41.1074
2023-04-27T10:54:27.838Z,41.3330
2023-04-27T10:55:29.561Z,40.6734
2023-04-27T10:56:31.162Z,40.7303
2023-04-27T10:57:32.827Z,40.2365
2023-04-27T10:58:45.254Z,39.8220
2023-04-27T10:59:36.156Z,40.4514
2023-04-27T11:00:37.760Z,40.1750
2023-04-27T11:01:39.514Z,39.3646
2023-04-27T11:02:41.095Z,39.3982
2023-04-27T11:03:42.802Z,39.6140
2023-04-27T11:04:44.448Z,42.1537
2023-04-27T11:05:46.425Z,41.6544
2023-04-27T11:06:47.727Z,39.2444
2023-04-27T11:07:49.350Z,42.2459
2023-04-27T11:08:50.993Z,40.4463
2023-04-27T11:09:52.711Z,40.5044
2023-04-27T11:10:54.306Z,42.2367
2023-04-27T11:11:55.973Z,43.8330
2023-04-27T11:12:57.575Z,45.3726
2023-04-27T11:13:59.334Z,46.2479
2023-04-27T11:15:01.012Z,44.6523
2023-04-27T11:16:02.628Z,44.2504
2023-04-27T11:17:04.264Z,42.5040
2023-04-27T11:18:05.931Z,45.3782
2023-04-27T11:19:07.500Z,47.0823
2023-04-27T11:20:09.433Z,44.9850
2023-04-27T11:21:10.874Z,45.8097
2023-04-27T11:22:12.595Z,43.5871
2023-04-27T11:23:14.116Z,45.5363
2023-04-27T11:24:15.792Z,43.7326
2023-04-27T11:25:17.929Z,41.8816
2023-04-27T11:26:19.201Z,43.8952
2023-04-27T11:27:20.790Z,43.0356
2023-04-27T11:28:22.421Z,41.0006
2023-04-27T11:29:24.024Z,41.9260
2023-04-27T11:30:25.937Z,42.9530
2023-04-27T11:31:28.438Z,45.5904
2023-04-27T11:32:29.057Z,46.9518
2023-04-27T11:33:30.673Z,43.2344
2023-04-27T11:34:32.342Z,41.9566
2023-04-27T11:35:33.979Z,41.6389
2023-04-27T11:36:35.692Z,43.8822
2023-04-27T11:37:37.382Z,41.8041
2023-04-27T11:38:38.966Z,44.9829
2023-04-27T11:39:40.602Z,43.8241
2023-04-27T11:40:42.360Z,42.0741
2023-04-27T11:41:44.040Z,40.9972
2023-04-27T11:42:45.558Z,42.4377
2023-04-27T11:43:47.327Z,44.0187
2023-04-27T11:44:48.912Z,44.6683
2023-04-27T11:45:51.456Z,41.4141
2023-04-27T11:46:52.365Z,43.5037
2023-04-27T11:47:54.011Z,43.2183
2023-04-27T11:48:55.620Z,43.2498
2023-04-27T11:49:57.204Z,44.4684
2023-04-27T11:50:58.943Z,44.0548
2023-04-27T11:52:00.589Z,44.9842
2023-04-27T11:53:02.225Z,42.1147
2023-04-27T11:54:03.846Z,42.8841
2023-04-27T11:55:05.510Z,41.6628
2023-04-27T11:56:07.167Z,44.0825
2023-04-27T11:57:08.859Z,42.8721
2023-04-27T11:58:10.425Z,43.3462
2023-04-27T11:59:12.204Z,43.7733
2023-04-27T12:00:13.795Z,44.1495
2023-04-27T12:01:21.856Z,41.0473
2023-04-27T12:02:17.157Z,38.0613
2023-04-27T12:03:18.882Z,38.3952
2023-04-27T12:04:20.798Z,40.0579
2023-04-27T12:05:22.104Z,39.7962
2023-04-27T12:07:25.344Z,41.5731
2023-04-27T12:08:27.009Z,38.8829
2023-04-27T12:09:28.622Z,37.0375
2023-04-27T12:10:30.297Z,39.2274
2023-04-27T12:11:32.044Z,39.6487
2023-04-27T12:12:33.677Z,36.6049
2023-04-27T12:13:35.533Z,38.4561
2023-04-27T12:14:36.914Z,40.8738
2023-04-27T12:15:38.630Z,39.2843
2023-04-27T12:16:40.264Z,38.7167
2023-04-27T12:17:42.059Z,38.3367
2023-04-27T12:18:43.570Z,39.4820
2023-04-27T12:19:45.308Z,39.3940
2023-04-27T12:20:46.886Z,40.4409
2023-04-27T12:21:48.567Z,38.6493
2023-04-27T12:22:50.193Z,36.2372
2023-04-27T12:23:51.933Z,31.6573
2023-04-27T12:24:53.535Z,32.6437
2023-04-27T12:25:55.146Z,34.6754
2023-04-27T12:26:56.878Z,31.9867